createdAt,value
2018-04-15T00:00:04.093Z,95.03
2018-04-15T00:01:04.154Z,94.84
2018-04-15T00:02:57.165Z,94.65
2018-04-15T00:03:57.202Z,94.46
2018-04-15T00:05:50.191Z,94.74
2018-04-15T00:06:50.273Z,94.70
2018-04-15T00:08:43.278Z,95.17
2018-04-15T00:09:43.300Z,95.37
2018-04-15T00:11:36.288Z,95.65
2018-04-15T00:12:36.343Z,95.17
2018-04-15T00:14:29.350Z,96.03
2018-04-15T00:15:29.391Z,96.13
2018-04-15T00:17:22.405Z,95.84
2018-04-15T00:18:22.445Z,95.94
2018-04-15T00:20:15.433Z,95.75
2018-04-15T00:21:15.492Z,95.84
2018-04-15T00:23:08.501Z,95.84
2018-04-15T00:24:08.544Z,95.94
2018-04-15T00:26:01.535Z,95.46
2018-04-15T00:27:01.594Z,95.56
2018-04-15T00:28:54.599Z,95.94
2018-04-15T00:29:54.641Z,95.65
2018-04-15T00:31:47.629Z,95.65
2018-04-15T00:32:47.693Z,95.84
2018-04-15T00:34:40.698Z,95.56
2018-04-15T00:35:40.739Z,96.13
2018-04-15T00:37:33.752Z,95.84
2018-04-15T00:38:33.793Z,95.84
2018-04-15T00:40:26.791Z,95.94
2018-04-15T00:41:26.854Z,95.84
2018-04-15T00:43:19.856Z,95.94
2018-04-15T00:44:19.897Z,96.03
2018-04-15T00:46:12.886Z,95.94
2018-04-15T00:47:12.948Z,95.94
2018-04-15T00:49:05.952Z,96.41
2018-04-15T00:50:05.993Z,96.70
2018-04-15T00:51:58.982Z,96.22
2018-04-15T00:52:59.046Z,96.51
2018-04-15T00:54:52.080Z,97.37
2018-04-15T00:55:52.084Z,97.17
2018-04-15T00:57:45.092Z,97.17
2018-04-15T00:58:45.136Z,96.32
2018-04-15T01:00:38.119Z,95.94
2018-04-15T01:01:38.178Z,96.70
2018-04-15T01:03:31.190Z,96.13
2018-04-15T01:04:31.233Z,95.84
2018-04-15T01:06:24.223Z,95.27
2018-04-15T01:07:24.287Z,95.75
2018-04-15T01:09:17.297Z,96.51
2018-04-15T01:10:17.339Z,96.66
2018-04-15T01:12:10.337Z,96.98
2018-04-15T01:13:10.397Z,96.70
2018-04-15T01:15:03.406Z,97.22
2018-04-15T01:16:03.447Z,97.32
2018-04-15T01:17:56.451Z,97.46
2018-04-15T01:18:56.511Z,96.89
2018-04-15T01:20:49.489Z,97.03
2018-04-15T01:21:49.571Z,97.85
2018-04-15T01:23:42.547Z,97.89
2018-04-15T01:24:42.589Z,97.51
2018-04-15T01:26:35.568Z,97.99
2018-04-15T01:27:35.632Z,98.08
2018-04-15T01:29:28.638Z,98.37
2018-04-15T01:30:28.679Z,98.85
2018-04-15T01:32:21.668Z,98.94
2018-04-15T01:33:21.725Z,98.18
2018-04-15T01:35:14.729Z,99.32
2018-04-15T01:36:14.772Z,98.27
2018-04-15T01:38:07.782Z,98.27
2018-04-15T01:39:07.825Z,98.66
2018-04-15T01:41:00.810Z,98.37
2018-04-15T01:42:00.873Z,98.94
2018-04-15T01:43:53.878Z,98.66
2018-04-15T01:44:53.917Z,99.13
2018-04-15T01:46:46.907Z,99.04
2018-04-15T01:47:46.969Z,99.61
2018-04-15T01:49:39.979Z,99.99
2018-04-15T01:50:40.022Z,99.99
2018-04-15T01:52:33.014Z,99.99
2018-04-15T01:53:33.076Z,99.99
2018-04-15T01:55:26.119Z,99.99
2018-04-15T01:56:26.128Z,99.99
2018-04-15T01:58:19.145Z,99.99
2018-04-15T01:59:19.184Z,99.99
2018-04-15T02:01:12.175Z,99.99
2018-04-15T02:02:12.236Z,99.99
2018-04-15T02:04:05.248Z,99.99
2018-04-15T02:05:05.291Z,99.99
2018-04-15T02:06:58.275Z,99.99
2018-04-15T02:07:58.336Z,99.99
2018-04-15T02:09:51.348Z,99.99
2018-04-15T02:10:51.391Z,99.99
2018-04-15T02:12:44.396Z,99.99
2018-04-15T02:13:44.447Z,99.99
2018-04-15T02:15:37.449Z,99.99
2018-04-15T02:16:37.490Z,99.99
2018-04-15T02:18:30.496Z,99.99
2018-04-15T02:19:30.541Z,99.99
2018-04-15T02:21:23.525Z,99.99
2018-04-15T02:22:23.590Z,99.99
2018-04-15T02:24:16.597Z,99.99
2018-04-15T02:25:16.642Z,99.99
2018-04-15T02:27:09.640Z,99.99
2018-04-15T02:28:09.702Z,99.99
2018-04-15T02:30:02.715Z,99.99
2018-04-15T02:31:02.758Z,99.99
2018-04-15T02:32:55.751Z,99.99
2018-04-15T02:33:55.810Z,99.99
2018-04-15T02:35:48.817Z,99.99
2018-04-15T02:36:48.860Z,99.99
2018-04-15T02:38:41.873Z,99.99
2018-04-15T02:39:41.917Z,99.99
2018-04-15T02:41:34.905Z,99.99
2018-04-15T02:42:34.962Z,99.99
2018-04-15T02:44:28.006Z,99.99
2018-04-15T02:45:28.013Z,99.99
2018-04-15T02:47:21.002Z,99.99
2018-04-15T02:48:21.061Z,99.99
2018-04-15T02:50:14.071Z,99.99
2018-04-15T02:51:14.113Z,99.99
2018-04-15T02:53:07.102Z,99.99
2018-04-15T02:54:07.160Z,99.99
2018-04-15T02:56:00.172Z,99.99
2018-04-15T02:57:00.213Z,99.99
2018-04-15T02:58:53.209Z,99.99
2018-04-15T02:59:53.251Z,99.99
2018-04-15T03:01:46.239Z,99.99
2018-04-15T03:02:46.298Z,99.99
2018-04-15T03:04:39.310Z,99.99
2018-04-15T03:05:39.352Z,99.99
2018-04-15T03:07:32.337Z,99.99
2018-04-15T03:08:32.399Z,99.99
2018-04-15T03:10:25.419Z,99.99
2018-04-15T03:11:25.459Z,99.99
2018-04-15T03:13:18.448Z,99.99
2018-04-15T03:14:18.513Z,99.99
2018-04-15T03:16:11.522Z,99.99
2018-04-15T03:17:11.564Z,99.99
2018-04-15T03:19:04.570Z,99.99
2018-04-15T03:20:04.612Z,99.99
2018-04-15T03:21:57.635Z,99.99
2018-04-15T03:22:57.664Z,99.99
2018-04-15T03:24:50.664Z,99.99
2018-04-15T03:25:50.705Z,99.99
2018-04-15T03:27:43.692Z,99.99
2018-04-15T03:28:43.748Z,99.99
2018-04-15T03:30:36.778Z,99.99
2018-04-15T03:31:36.821Z,99.99
2018-04-15T03:33:29.843Z,99.99
2018-04-15T03:34:29.863Z,99.99
2018-04-15T03:36:23.384Z,99.99
2018-04-15T03:37:23.422Z,99.99
2018-04-15T03:39:16.425Z,99.99
2018-04-15T03:40:16.467Z,99.99
2018-04-15T03:42:09.454Z,99.99
2018-04-15T03:43:09.510Z,99.99
2018-04-15T03:45:02.517Z,99.99
2018-04-15T03:46:02.556Z,99.99
2018-04-15T03:47:55.544Z,99.99
2018-04-15T03:48:55.603Z,99.99
2018-04-15T03:50:48.625Z,99.99
2018-04-15T03:51:48.646Z,99.99
2018-04-15T03:53:41.670Z,99.99
2018-04-15T03:54:41.699Z,99.99
2018-04-15T03:56:34.704Z,99.99
2018-04-15T03:57:34.747Z,99.99
2018-04-15T03:59:27.748Z,99.99
2018-04-15T04:00:27.795Z,99.99
2018-04-15T04:02:20.778Z,99.99
2018-04-15T04:03:20.836Z,99.99
2018-04-15T04:05:13.834Z,99.99
2018-04-15T04:06:13.876Z,99.99
2018-04-15T04:08:06.860Z,99.99
2018-04-15T04:09:06.966Z,99.99
2018-04-15T04:10:59.924Z,99.99
2018-04-15T04:11:59.965Z,99.99
2018-04-15T04:13:52.956Z,99.99
2018-04-15T04:14:53.017Z,99.99
2018-04-15T04:16:46.034Z,99.99
2018-04-15T04:17:46.073Z,99.99
2018-04-15T04:19:39.078Z,99.99
2018-04-15T04:20:39.117Z,99.99
2018-04-15T04:22:32.107Z,99.99
2018-04-15T04:23:32.169Z,99.99
2018-04-15T04:25:25.188Z,99.99
2018-04-15T04:26:25.223Z,99.99
2018-04-15T04:28:19.709Z,99.99
2018-04-15T04:29:19.773Z,99.99
2018-04-15T04:31:12.783Z,99.99
2018-04-15T04:32:13.344Z,99.99
2018-04-15T04:34:05.841Z,99.99
2018-04-15T04:35:05.900Z,99.99
2018-04-15T04:36:58.906Z,99.99
2018-04-15T04:37:58.945Z,99.94
2018-04-15T04:39:51.947Z,99.99
2018-04-15T04:40:51.988Z,99.99
2018-04-15T04:42:45.018Z,99.99
2018-04-15T04:43:45.057Z,99.99
2018-04-15T04:45:38.092Z,99.99
2018-04-15T04:46:38.121Z,99.99
2018-04-15T04:48:31.064Z,99.94
2018-04-15T04:49:31.126Z,99.99
2018-04-15T04:51:30.519Z,99.46
2018-04-15T04:52:24.642Z,98.79
2018-04-15T04:54:17.434Z,99.08
2018-04-15T04:55:17.497Z,98.60
2018-04-15T04:57:10.497Z,98.65
2018-04-15T04:58:10.537Z,99.04
2018-04-15T05:00:03.591Z,98.85
2018-04-15T05:01:03.587Z,98.79
2018-04-15T05:02:56.581Z,98.85
2018-04-15T05:03:56.636Z,98.75
2018-04-15T05:05:49.638Z,98.46
2018-04-15T05:06:49.682Z,98.22
2018-04-15T05:08:42.683Z,98.56
2018-04-15T05:09:42.734Z,98.46
2018-04-15T05:11:35.758Z,97.80
2018-04-15T05:12:35.783Z,98.18
2018-04-15T05:14:28.763Z,97.80
2018-04-15T05:15:28.824Z,98.46
2018-04-15T05:17:21.828Z,98.46
2018-04-15T05:18:21.869Z,98.85
2018-04-15T05:20:14.876Z,99.04
2018-04-15T05:21:14.913Z,99.60
2018-04-15T05:23:07.896Z,99.41
2018-04-15T05:24:07.956Z,99.22
2018-04-15T05:26:00.967Z,98.75
2018-04-15T05:27:01.008Z,99.22
2018-04-15T05:28:53.996Z,98.18
2018-04-15T05:29:54.056Z,97.99
2018-04-15T05:31:47.062Z,97.80
2018-04-15T05:32:47.104Z,97.41
2018-04-15T05:34:40.126Z,96.84
2018-04-15T05:35:40.147Z,96.94
2018-04-15T05:37:33.216Z,96.84
2018-04-15T05:38:33.233Z,96.36
2018-04-15T05:40:26.218Z,95.32
2018-04-15T05:41:26.242Z,95.51
2018-04-15T05:43:19.228Z,95.32
2018-04-15T05:44:19.286Z,95.12
2018-04-15T05:46:12.830Z,94.56
2018-04-15T05:47:12.331Z,94.27
2018-04-15T05:49:05.318Z,94.27
2018-04-15T05:50:05.376Z,93.79
2018-04-15T05:51:58.378Z,93.60
2018-04-15T05:52:58.417Z,94.17
2018-04-15T05:54:51.402Z,93.36
2018-04-15T05:55:51.477Z,93.27
2018-04-15T05:57:44.467Z,92.50
2018-04-15T05:58:44.508Z,92.12
2018-04-15T06:00:37.553Z,91.74
2018-04-15T06:01:37.557Z,91.83
2018-04-15T06:03:30.542Z,91.27
2018-04-15T06:04:30.603Z,91.17
2018-04-15T06:06:23.610Z,90.98
2018-04-15T06:07:23.656Z,90.69
2018-04-15T06:09:16.641Z,90.59
2018-04-15T06:10:16.703Z,90.22
2018-04-15T06:12:09.703Z,90.69
2018-04-15T06:13:09.744Z,90.31
2018-04-15T06:15:02.726Z,90.22
2018-04-15T06:16:02.791Z,89.93
2018-04-15T06:17:55.800Z,89.83
2018-04-15T06:18:55.841Z,89.74
2018-04-15T06:20:48.854Z,89.36
2018-04-15T06:21:48.887Z,88.98
2018-04-15T06:23:41.875Z,88.69
2018-04-15T06:24:41.935Z,88.50
2018-04-15T06:26:34.984Z,88.02
2018-04-15T06:27:34.986Z,88.31
2018-04-15T06:29:28.485Z,88.73
2018-04-15T06:30:28.541Z,88.78
2018-04-15T06:32:21.553Z,88.59
2018-04-15T06:33:21.590Z,88.69
2018-04-15T06:35:14.578Z,88.73
2018-04-15T06:36:14.635Z,88.73
2018-04-15T06:38:08.151Z,89.21
2018-04-15T06:39:08.191Z,89.59
2018-04-15T06:41:01.193Z,89.21
2018-04-15T06:42:01.232Z,89.69
2018-04-15T06:43:54.223Z,89.59
2018-04-15T06:44:54.285Z,90.17
2018-04-15T06:46:47.300Z,89.88
2018-04-15T06:47:47.340Z,89.88
2018-04-15T06:49:40.324Z,89.97
2018-04-15T06:50:40.386Z,90.45
2018-04-15T06:52:33.443Z,90.93
2018-04-15T06:53:33.488Z,91.31
2018-04-15T06:55:26.473Z,91.45
2018-04-15T06:56:26.536Z,91.55
2018-04-15T06:58:19.539Z,91.55
2018-04-15T06:59:19.583Z,92.31
2018-04-15T07:01:12.588Z,92.60
2018-04-15T07:02:12.627Z,93.36
2018-04-15T07:04:05.616Z,93.74
2018-04-15T07:05:05.674Z,95.27
2018-04-15T07:06:58.700Z,96.22
2018-04-15T07:07:58.731Z,96.75
2018-04-15T07:09:51.720Z,97.99
2018-04-15T07:10:51.784Z,99.90
2018-04-15T07:12:44.786Z,99.99
2018-04-15T07:13:44.828Z,99.99
2018-04-15T07:15:37.819Z,99.99
2018-04-15T07:16:37.882Z,99.99
2018-04-15T07:18:30.893Z,99.99
2018-04-15T07:19:30.930Z,99.99
2018-04-15T07:21:23.938Z,99.99
2018-04-15T07:22:23.980Z,99.99
2018-04-15T07:24:17.508Z,99.99
2018-04-15T07:25:17.541Z,99.99
2018-04-15T07:27:10.573Z,99.99
2018-04-15T07:28:10.589Z,99.99
2018-04-15T07:30:03.590Z,99.99
2018-04-15T07:31:03.651Z,99.99
2018-04-15T07:32:56.667Z,99.99
2018-04-15T07:33:56.712Z,99.99
2018-04-15T07:35:49.703Z,99.99
2018-04-15T07:36:49.768Z,99.99
2018-04-15T07:38:42.782Z,99.99
2018-04-15T07:39:42.819Z,99.99
2018-04-15T07:41:35.815Z,99.99
2018-04-15T07:42:35.873Z,99.99
2018-04-15T07:44:28.883Z,99.99
2018-04-15T07:45:28.926Z,99.99
2018-04-15T07:47:21.917Z,99.99
2018-04-15T07:48:21.981Z,99.99
2018-04-15T07:50:15.010Z,99.99
2018-04-15T07:51:15.055Z,99.99
2018-04-15T07:53:08.063Z,99.99
2018-04-15T07:54:08.109Z,99.99
2018-04-15T07:56:01.098Z,99.99
2018-04-15T07:57:01.162Z,99.99
2018-04-15T07:58:54.176Z,99.99
2018-04-15T07:59:54.221Z,99.99
2018-04-15T08:01:47.210Z,99.99
2018-04-15T08:02:47.273Z,99.99
2018-04-15T08:04:40.282Z,99.99
2018-04-15T08:05:40.324Z,99.99
2018-04-15T08:07:33.316Z,99.99
2018-04-15T08:08:33.377Z,99.99
2018-04-15T08:10:26.396Z,99.99
2018-04-15T08:11:26.440Z,99.99
2018-04-15T08:13:19.431Z,99.99
2018-04-15T08:14:19.495Z,99.99
2018-04-15T08:16:12.502Z,99.99
2018-04-15T08:17:12.600Z,99.99
2018-04-15T08:19:06.403Z,99.99
2018-04-15T08:20:06.446Z,96.61
2018-04-15T08:21:59.478Z,94.40
2018-04-15T08:22:59.501Z,94.01
2018-04-15T08:24:52.511Z,83.64
2018-04-15T08:25:52.557Z,80.06
2018-04-15T08:27:45.553Z,75.67
2018-04-15T08:28:45.618Z,74.95
2018-04-15T08:30:38.639Z,75.30
2018-04-15T08:31:38.684Z,77.00
2018-04-15T08:33:31.697Z,79.00
2018-04-15T08:34:31.766Z,80.17
2018-04-15T08:36:24.785Z,83.07
2018-04-15T08:37:24.832Z,84.12
2018-04-15T08:39:17.860Z,86.18
2018-04-15T08:40:17.912Z,84.59
2018-04-15T08:42:10.918Z,80.43
2018-04-15T08:43:11.028Z,78.54
2018-04-15T08:45:04.525Z,77.03
2018-04-15T08:46:04.574Z,74.89
2018-04-15T08:47:57.609Z,71.62
2018-04-15T08:48:57.646Z,68.62
2018-04-15T08:50:50.679Z,69.84
2018-04-15T08:51:50.728Z,69.62
2018-04-15T08:53:43.730Z,73.53
2018-04-15T08:54:43.800Z,73.05
2018-04-15T08:56:36.824Z,73.24
2018-04-15T08:57:36.875Z,69.39
2018-04-15T08:59:29.910Z,67.11
2018-04-15T09:00:29.960Z,68.20
2018-04-15T09:02:22.977Z,69.32
2018-04-15T09:03:23.043Z,66.82
2018-04-15T09:05:16.070Z,62.79
2018-04-15T09:06:16.119Z,61.56
2018-04-15T09:08:09.131Z,62.27
2018-04-15T09:09:09.222Z,60.20
2018-04-15T09:11:02.245Z,58.42
2018-04-15T09:12:02.296Z,59.46
2018-04-15T09:13:55.303Z,61.53
2018-04-15T09:14:55.380Z,63.79
2018-04-15T09:16:48.408Z,68.68
2018-04-15T09:17:48.461Z,68.71
2018-04-15T09:19:41.469Z,75.51
2018-04-15T09:20:41.537Z,74.48
2018-04-15T09:22:34.603Z,77.13
2018-04-15T09:23:34.624Z,78.63
2018-04-15T09:25:27.652Z,79.32
2018-04-15T09:26:27.737Z,79.99
2018-04-15T09:28:20.700Z,82.30
2018-04-15T09:29:20.771Z,82.78
2018-04-15T09:31:13.830Z,83.59
2018-04-15T09:32:13.839Z,83.87
2018-04-15T09:34:06.837Z,81.34
2018-04-15T09:35:06.905Z,83.54
2018-04-15T09:36:59.921Z,81.10
2018-04-15T09:37:59.968Z,80.91
2018-04-15T09:39:53.005Z,81.64
2018-04-15T09:40:53.032Z,79.82
2018-04-15T09:42:46.050Z,81.07
2018-04-15T09:43:46.098Z,82.51
2018-04-15T09:45:39.092Z,83.18
2018-04-15T09:46:39.160Z,82.31
2018-04-15T09:48:32.173Z,81.59
2018-04-15T09:49:32.219Z,83.70
2018-04-15T09:51:25.218Z,82.74
2018-04-15T09:52:25.292Z,83.08
2018-04-15T09:54:18.298Z,84.08
2018-04-15T09:55:18.345Z,83.93
2018-04-15T09:57:11.377Z,80.09
2018-04-15T09:58:11.437Z,81.05
2018-04-15T10:00:04.466Z,81.53
2018-04-15T10:01:04.509Z,82.49
2018-04-15T10:02:57.524Z,81.34
2018-04-15T10:03:57.570Z,83.01
2018-04-15T10:05:50.565Z,80.90
2018-04-15T10:06:50.631Z,81.28
2018-04-15T10:08:43.644Z,81.24
2018-04-15T10:09:43.691Z,84.17
2018-04-15T10:11:36.694Z,82.49
2018-04-15T10:12:36.750Z,82.68
2018-04-15T10:14:29.762Z,80.86
2018-04-15T10:15:29.809Z,81.87
2018-04-15T10:17:22.804Z,82.89
2018-04-15T10:18:22.866Z,83.27
2018-04-15T10:20:15.878Z,84.37
2018-04-15T10:21:15.925Z,83.70
2018-04-15T10:23:08.935Z,83.89
2018-04-15T10:24:09.067Z,84.08
2018-04-15T10:26:01.976Z,84.08
2018-04-15T10:27:02.039Z,84.31
2018-04-15T10:28:55.051Z,82.30
2018-04-15T10:29:55.110Z,81.59
2018-04-15T10:31:48.093Z,83.54
2018-04-15T10:32:48.158Z,83.36
2018-04-15T10:34:41.169Z,82.68
2018-04-15T10:35:41.212Z,83.45
2018-04-15T10:37:34.210Z,80.96
2018-04-15T10:38:34.277Z,81.63
2018-04-15T10:40:27.291Z,81.24
2018-04-15T10:41:27.336Z,84.84
2018-04-15T10:43:20.353Z,81.67
2018-04-15T10:44:20.394Z,80.80
2018-04-15T10:46:13.389Z,79.75
2018-04-15T10:47:13.452Z,80.42
2018-04-15T10:49:06.472Z,80.61
2018-04-15T10:50:06.519Z,81.76
2018-04-15T10:51:59.513Z,78.59
2018-04-15T10:52:59.580Z,79.75
2018-04-15T10:54:52.591Z,81.57
2018-04-15T10:55:52.637Z,83.01
2018-04-15T10:57:45.633Z,78.69
2018-04-15T10:58:45.698Z,78.78
2018-04-15T11:00:38.724Z,78.88
2018-04-15T11:01:38.766Z,81.19
2018-04-15T11:03:31.785Z,78.59
2018-04-15T11:04:31.829Z,79.27
2018-04-15T11:06:24.856Z,77.73
2018-04-15T11:07:24.885Z,76.96
2018-04-15T11:09:17.904Z,79.36
2018-04-15T11:10:17.950Z,77.38
2018-04-15T11:12:10.947Z,76.71
2018-04-15T11:13:11.013Z,76.90
2018-04-15T11:15:04.028Z,79.17
2018-04-15T11:16:04.080Z,78.78
2018-04-15T11:17:57.067Z,76.67
2018-04-15T11:18:57.132Z,77.25
2018-04-15T11:20:50.159Z,79.32
2018-04-15T11:21:50.190Z,77.50
2018-04-15T11:23:43.202Z,78.90
2018-04-15T11:24:43.250Z,79.57
2018-04-15T11:26:36.242Z,78.45
2018-04-15T11:27:36.323Z,78.08
2018-04-15T11:29:29.325Z,78.78
2018-04-15T11:30:29.390Z,74.98
2018-04-15T11:32:22.379Z,78.34
2018-04-15T11:33:22.448Z,78.86
2018-04-15T11:35:15.461Z,77.33
2018-04-15T11:36:15.505Z,75.69
2018-04-15T11:38:08.499Z,73.99
2018-04-15T11:39:08.564Z,72.90
2018-04-15T11:41:01.578Z,74.05
2018-04-15T11:42:01.631Z,73.96
2018-04-15T11:43:54.656Z,75.59
2018-04-15T11:44:54.702Z,76.11
2018-04-15T11:46:47.711Z,75.82
2018-04-15T11:47:47.779Z,75.92
2018-04-15T11:49:40.806Z,74.67
2018-04-15T11:50:40.846Z,78.13
2018-04-15T11:52:33.841Z,75.63
2018-04-15T11:53:33.903Z,74.99
2018-04-15T11:55:26.918Z,74.38
2018-04-15T11:56:26.965Z,73.99
2018-04-15T11:58:19.959Z,73.51
2018-04-15T11:59:20.022Z,74.48
2018-04-15T12:01:13.049Z,73.99
2018-04-15T12:02:13.104Z,74.38
2018-04-15T12:04:06.105Z,73.96
2018-04-15T12:05:06.152Z,75.15
2018-04-15T12:06:59.149Z,73.67
2018-04-15T12:07:59.212Z,71.88
2018-04-15T12:09:52.739Z,72.71
2018-04-15T12:10:52.784Z,73.96
2018-04-15T12:12:46.289Z,74.38
2018-04-15T12:13:46.363Z,76.98
2018-04-15T12:15:39.882Z,73.90
2018-04-15T12:16:39.926Z,73.42
2018-04-15T12:18:32.934Z,72.74
2018-04-15T12:19:33.002Z,73.90
2018-04-15T12:21:26.017Z,73.22
2018-04-15T12:22:26.077Z,72.84
2018-04-15T12:24:19.076Z,73.80
2018-04-15T12:25:19.123Z,73.09
2018-04-15T12:27:12.120Z,73.35
2018-04-15T12:28:12.184Z,74.69
2018-04-15T12:30:05.706Z,74.11
2018-04-15T12:31:05.751Z,74.69
2018-04-15T12:32:58.749Z,76.65
2018-04-15T12:33:58.913Z,76.46
2018-04-15T12:35:51.865Z,74.86
2018-04-15T12:36:51.879Z,74.19
2018-04-15T12:38:45.005Z,74.67
2018-04-15T12:39:44.963Z,75.92
2018-04-15T12:41:37.972Z,71.69
2018-04-15T12:42:38.046Z,72.65
2018-04-15T12:44:31.029Z,75.54
2018-04-15T12:45:31.075Z,75.15
2018-04-15T12:47:24.500Z,71.30
2018-04-15T12:48:24.232Z,73.61
2018-04-15T12:50:17.147Z,71.59
2018-04-15T12:51:17.195Z,71.40
2018-04-15T12:53:10.190Z,72.36
2018-04-15T12:54:10.259Z,71.01
2018-04-15T12:56:03.287Z,73.42
2018-04-15T12:57:03.323Z,73.38
2018-04-15T12:58:56.367Z,72.71
2018-04-15T12:59:56.388Z,72.32
2018-04-15T13:01:49.402Z,73.57
2018-04-15T13:02:49.470Z,72.23
2018-04-15T13:04:42.756Z,71.46
2018-04-15T13:05:42.513Z,72.71
2018-04-15T13:07:35.591Z,72.13
2018-04-15T13:08:35.570Z,71.26
2018-04-15T13:10:28.620Z,72.71
2018-04-15T13:11:28.637Z,71.78
2018-04-15T13:13:21.669Z,71.75
2018-04-15T13:14:21.698Z,72.90
2018-04-15T13:16:14.714Z,72.03
2018-04-15T13:17:14.771Z,71.65
2018-04-15T13:19:07.791Z,72.61
2018-04-15T13:20:07.825Z,72.71
2018-04-15T13:22:00.843Z,73.73
2018-04-15T13:23:00.895Z,73.35
2018-04-15T13:24:54.112Z,74.60
2018-04-15T13:25:53.951Z,73.06
2018-04-15T13:27:46.946Z,72.77
2018-04-15T13:28:47.051Z,73.35
2018-04-15T13:30:40.028Z,72.96
2018-04-15T13:31:40.075Z,74.15
2018-04-15T13:33:33.070Z,73.38
2018-04-15T13:34:33.139Z,72.80
2018-04-15T13:36:26.155Z,73.47
2018-04-15T13:37:26.201Z,72.80
2018-04-15T13:39:19.206Z,71.36
2018-04-15T13:40:26.947Z,72.03
2018-04-15T13:42:12.297Z,71.26
2018-04-15T13:43:12.347Z,70.78
2018-04-15T13:45:05.371Z,70.40
2018-04-15T13:46:05.414Z,71.20
2018-04-15T13:47:58.922Z,68.99
2018-04-15T13:48:58.987Z,70.43
2018-04-15T13:50:51.999Z,67.29
2018-04-15T13:51:52.048Z,67.65
2018-04-15T13:53:45.056Z,67.55
2018-04-15T13:54:45.121Z,70.24
2018-04-15T13:56:38.138Z,68.26
2018-04-15T13:57:38.187Z,67.39
2018-04-15T13:59:31.184Z,66.04
2018-04-15T14:00:31.245Z,65.85
2018-04-15T14:02:24.298Z,63.92
2018-04-15T14:03:24.303Z,64.98
2018-04-15T14:05:17.317Z,67.87
2018-04-15T14:06:17.365Z,65.20
2018-04-15T14:08:10.898Z,64.59
2018-04-15T14:09:10.934Z,63.15
2018-04-15T14:11:03.946Z,61.80
2018-04-15T14:12:03.993Z,61.99
2018-04-15T14:13:58.497Z,64.37
2018-04-15T14:14:58.562Z,63.50
2018-04-15T14:16:51.582Z,64.05
2018-04-15T14:17:51.627Z,63.67
2018-04-15T14:19:44.619Z,64.34
2018-04-15T14:20:44.686Z,64.59
2018-04-15T14:22:37.704Z,65.85
2018-04-15T14:23:37.752Z,65.94
2018-04-15T14:25:30.775Z,66.52
2018-04-15T14:26:30.870Z,65.85
2018-04-15T14:28:23.888Z,68.35
2018-04-15T14:29:23.908Z,67.10
2018-04-15T14:31:16.899Z,66.91
2018-04-15T14:32:16.945Z,66.52
2018-04-15T14:34:10.015Z,66.24
2018-04-15T14:35:10.076Z,65.81
2018-04-15T14:37:03.076Z,64.18
2018-04-15T14:38:03.122Z,66.78
2018-04-15T14:39:56.120Z,67.55
2018-04-15T14:40:56.186Z,66.97
2018-04-15T14:42:49.201Z,67.74
2018-04-15T14:43:49.252Z,68.13
2018-04-15T14:45:42.290Z,66.68
2018-04-15T14:46:42.310Z,66.39
2018-04-15T14:48:35.305Z,68.03
2018-04-15T14:49:35.370Z,68.13
2018-04-15T14:51:28.399Z,67.71
2018-04-15T14:52:28.444Z,67.74
2018-04-15T14:54:21.621Z,68.13
2018-04-15T14:55:21.499Z,66.94
2018-04-15T14:57:14.524Z,67.61
2018-04-15T14:58:14.560Z,67.61
2018-04-15T15:00:07.579Z,67.42
2018-04-15T15:01:07.654Z,67.90
2018-04-15T15:03:00.653Z,68.19
2018-04-15T15:04:00.695Z,68.38
2018-04-15T15:05:53.712Z,69.82
2018-04-15T15:06:53.758Z,69.73
2018-04-15T15:08:46.752Z,68.38
2018-04-15T15:09:46.819Z,68.96
2018-04-15T15:11:39.841Z,68.06
2018-04-15T15:12:39.888Z,68.73
2018-04-15T15:14:33.398Z,69.92
2018-04-15T15:15:33.471Z,69.24
2018-04-15T15:17:26.484Z,68.06
2018-04-15T15:18:26.563Z,68.92
2018-04-15T15:20:19.526Z,70.27
2018-04-15T15:21:19.589Z,70.75
2018-04-15T15:23:12.610Z,70.37
2018-04-15T15:24:12.658Z,70.27
2018-04-15T15:26:05.672Z,72.29
2018-04-15T15:27:05.716Z,70.84
2018-04-15T15:28:58.710Z,71.42
2018-04-15T15:29:58.773Z,71.33
2018-04-15T15:31:51.791Z,70.65
2018-04-15T15:32:51.845Z,71.33
2018-04-15T15:34:44.837Z,71.42
2018-04-15T15:35:44.896Z,70.27
2018-04-15T15:37:37.908Z,71.00
2018-04-15T15:38:37.955Z,72.19
2018-04-15T15:40:30.950Z,71.52
2018-04-15T15:41:31.016Z,72.00
2018-04-15T15:43:24.565Z,71.91
2018-04-15T15:44:24.581Z,71.61
2018-04-15T15:46:17.637Z,71.91
2018-04-15T15:47:17.673Z,72.09
2018-04-15T15:49:10.669Z,73.54
2018-04-15T15:50:10.724Z,74.02
2018-04-15T15:52:03.738Z,72.09
2018-04-15T15:53:03.787Z,72.67
2018-04-15T15:54:56.786Z,73.57
2018-04-15T15:55:56.854Z,73.00
2018-04-15T15:57:49.880Z,71.55
2018-04-15T15:58:49.923Z,71.65
2018-04-15T16:00:42.924Z,71.55
2018-04-15T16:01:42.988Z,70.98
2018-04-15T16:03:36.039Z,70.50
2018-04-15T16:04:36.048Z,70.50
2018-04-15T16:06:29.119Z,70.88
2018-04-15T16:07:29.108Z,70.98
2018-04-15T16:09:22.107Z,70.21
2018-04-15T16:10:22.172Z,71.17
2018-04-15T16:12:15.199Z,71.26
2018-04-15T16:13:15.243Z,69.89
2018-04-15T16:15:08.237Z,70.46
2018-04-15T16:16:08.303Z,71.42
2018-04-15T16:18:02.074Z,71.71
2018-04-15T16:19:01.362Z,71.42
2018-04-15T16:20:54.360Z,71.61
2018-04-15T16:21:54.423Z,71.23
2018-04-15T16:23:47.949Z,70.94
2018-04-15T16:24:47.995Z,71.61
2018-04-15T16:26:41.022Z,71.81
2018-04-15T16:27:41.093Z,72.67
2018-04-15T16:29:34.074Z,71.65
2018-04-15T16:30:34.140Z,71.23
2018-04-15T16:32:27.174Z,71.75
2018-04-15T16:33:27.199Z,72.71
2018-04-15T16:35:20.204Z,71.26
2018-04-15T16:36:20.266Z,70.01
2018-04-15T16:38:13.282Z,69.06
2018-04-15T16:39:13.342Z,68.09
2018-04-15T16:41:06.349Z,69.21
2018-04-15T16:42:06.414Z,69.69
2018-04-15T16:43:59.440Z,72.09
2018-04-15T16:44:59.484Z,71.55
2018-04-15T16:46:52.494Z,70.17
2018-04-15T16:47:52.649Z,69.89
2018-04-15T16:49:45.544Z,70.17
2018-04-15T16:50:45.615Z,70.17
2018-04-15T16:52:38.638Z,71.23
2018-04-15T16:53:38.679Z,72.00
2018-04-15T16:55:31.679Z,72.86
2018-04-15T16:56:31.745Z,72.48
2018-04-15T16:58:24.761Z,72.67
2018-04-15T16:59:24.811Z,72.77
2018-04-15T17:01:17.800Z,72.00
2018-04-15T17:02:17.867Z,71.14
2018-04-15T17:04:10.885Z,71.61
2018-04-15T17:05:10.943Z,72.00
2018-04-15T17:07:03.950Z,72.29
2018-04-15T17:08:03.996Z,72.67
2018-04-15T17:09:56.997Z,73.25
2018-04-15T17:10:57.059Z,73.63
2018-04-15T17:12:50.098Z,73.60
2018-04-15T17:13:50.131Z,72.77
2018-04-15T17:15:43.130Z,72.64
2018-04-15T17:16:43.194Z,71.58
2018-04-15T17:18:47.881Z,72.64
2018-04-15T17:19:47.929Z,70.90
2018-04-15T17:21:40.936Z,70.72
2018-04-15T17:22:41.020Z,70.90
2018-04-15T17:24:34.005Z,70.81
2018-04-15T17:25:34.051Z,71.48
2018-04-15T17:27:27.095Z,72.06
2018-04-15T17:28:27.128Z,71.67
2018-04-15T17:30:20.119Z,71.87
2018-04-15T17:31:20.185Z,71.77
2018-04-15T17:33:13.198Z,73.02
2018-04-15T17:34:13.246Z,72.73
2018-04-15T17:36:06.238Z,72.92
2018-04-15T17:37:06.302Z,72.69
2018-04-15T17:38:59.323Z,74.23
2018-04-15T17:39:59.379Z,73.85
2018-04-15T17:41:52.367Z,74.62
2018-04-15T17:42:52.431Z,75.20
2018-04-15T17:44:45.450Z,74.81
2018-04-15T17:45:45.532Z,75.00
2018-04-15T17:47:38.505Z,75.38
2018-04-15T17:48:38.605Z,75.38
2018-04-15T17:50:31.552Z,75.96
2018-04-15T17:51:31.650Z,75.96
2018-04-15T17:53:24.636Z,76.25
2018-04-15T17:54:24.693Z,75.87
2018-04-15T17:56:17.678Z,76.06
2018-04-15T17:57:17.740Z,76.82
2018-04-15T17:59:10.754Z,76.12
2018-04-15T18:00:10.800Z,77.56
2018-04-15T18:02:03.795Z,77.65
2018-04-15T18:03:03.862Z,78.23
2018-04-15T18:04:56.876Z,77.84
2018-04-15T18:05:56.921Z,77.36
2018-04-15T18:07:49.936Z,77.94
2018-04-15T18:08:49.980Z,77.84
2018-04-15T18:10:43.000Z,79.09
2018-04-15T18:11:43.039Z,79.86
2018-04-15T18:13:36.088Z,79.53
2018-04-15T18:14:36.101Z,79.86
2018-04-15T18:16:29.094Z,79.09
2018-04-15T18:17:29.159Z,79.14
2018-04-15T18:19:22.184Z,79.47
2018-04-15T18:20:22.213Z,79.63
2018-04-15T18:22:15.223Z,79.63
2018-04-15T18:23:15.625Z,79.91
2018-04-15T18:25:08.301Z,79.91
2018-04-15T18:26:08.327Z,79.72
2018-04-15T18:28:01.383Z,79.82
2018-04-15T18:29:01.397Z,80.20
2018-04-15T18:30:54.444Z,79.82
2018-04-15T18:31:54.473Z,79.72
2018-04-15T18:33:47.524Z,80.01